Time;durP1;ratioP1;P1;durP2;ratioP2;P2;SDS_P1;SDS_P2;PMS_P1;PMS_P2;Temp;Humidity;BMP_temperature;BMP_pressure;BME280_temperature;BME280_humidity;BME280_pressure;Samples;Min_cycle;Max_cycle;Signal;HPM_P1;HPM_P2
2024/03/26 00:00:15;;;;;;;8.73;3.20;;;9.60;99.90;;;;;;7280728;19;20200;-77
2024/03/26 00:02:41;;;;;;;6.37;2.80;;;9.60;99.90;;;;;;7280711;19;20251;-80
2024/03/26 00:05:08;;;;;;;9.13;3.43;;;9.50;99.90;;;;;;7280628;19;20212;-76
2024/03/26 00:07:35;;;;;;;10.07;3.43;;;9.50;99.90;;;;;;7279805;19;20631;-77
2024/03/26 00:10:01;;;;;;;7.30;2.83;;;9.50;99.90;;;;;;7280343;19;20191;-77
2024/03/26 00:12:27;;;;;;;10.63;3.37;;;9.40;99.90;;;;;;7280095;19;20202;-77
2024/03/26 00:14:52;;;;;;;7.63;3.00;;;9.30;99.90;;;;;;7278839;19;20214;-77
2024/03/26 00:17:18;;;;;;;8.77;3.13;;;9.30;99.90;;;;;;7301855;19;20218;-76
2024/03/26 00:19:44;;;;;;;10.90;3.33;;;9.20;99.90;;;;;;7279899;19;20192;-77
2024/03/26 00:22:10;;;;;;;8.50;3.27;;;9.30;99.90;;;;;;7280769;19;20198;-77
2024/03/26 00:24:36;;;;;;;8.77;3.47;;;9.40;99.90;;;;;;7280620;19;20217;-76
2024/03/26 00:27:01;;;;;;;8.57;3.20;;;9.30;99.90;;;;;;7279988;19;20203;-77
2024/03/26 00:29:27;;;;;;;7.27;3.00;;;9.20;99.90;;;;;;7281275;19;20195;-77
2024/03/26 00:31:53;;;;;;;8.20;2.90;;;9.10;99.90;;;;;;7280215;19;20207;-77
2024/03/26 00:34:18;;;;;;;9.93;3.23;;;9.10;99.90;;;;;;7302581;19;20194;-77
2024/03/26 00:36:44;;;;;;;7.63;3.27;;;9.10;99.90;;;;;;7287991;19;20191;-76
2024/03/26 00:39:10;;;;;;;8.73;3.27;;;9.20;99.90;;;;;;7287590;19;20282;-76
2024/03/26 00:41:36;;;;;;;8.90;3.13;;;9.10;99.90;;;;;;7287142;19;20196;-77
2024/03/26 00:44:01;;;;;;;7.77;3.50;;;9.10;99.90;;;;;;7285363;19;20193;-77
2024/03/26 00:46:27;;;;;;;10.90;3.27;;;9.00;99.90;;;;;;7286089;19;20193;-77
2024/03/26 00:48:53;;;;;;;8.50;3.30;;;9.00;99.90;;;;;;7285790;19;20215;-77
2024/03/26 00:51:19;;;;;;;9.83;3.20;;;9.10;99.90;;;;;;7307111;19;20196;-77
2024/03/26 00:53:45;;;;;;;9.63;3.33;;;9.10;99.90;;;;;;7283928;19;20229;-77
2024/03/26 00:56:10;;;;;;;12.43;3.60;;;9.00;99.90;;;;;;7286671;19;20268;-77
2024/03/26 00:58:36;;;;;;;11.23;3.17;;;9.00;99.90;;;;;;7287352;19;20205;-78
2024/03/26 01:01:11;;;;;;;9.30;3.37;;;9.00;99.90;;;;;;7285782;19;20191;-77
2024/03/26 01:03:37;;;;;;;8.17;3.30;;;8.90;99.90;;;;;;7285638;19;20193;-78
2024/03/26 01:06:03;;;;;;;8.37;3.40;;;9.00;99.90;;;;;;7286373;19;20206;-78
2024/03/26 01:08:30;;;;;;;8.27;3.37;;;9.00;99.90;;;;;;7286242;19;20207;-77
2024/03/26 01:10:55;;;;;;;8.20;2.93;;;8.90;99.90;;;;;;7283715;19;20191;-77
2024/03/26 01:13:21;;;;;;;7.87;3.17;;;8.80;99.90;;;;;;7297027;19;20214;-77
2024/03/26 01:15:47;;;;;;;11.43;3.47;;;8.90;99.90;;;;;;7305995;19;20197;-77
2024/03/26 01:18:13;;;;;;;7.23;2.97;;;8.90;99.90;;;;;;7286996;19;20254;-79
2024/03/26 01:20:41;;;;;;;7.93;3.27;;;8.80;99.90;;;;;;7283320;19;20648;-77
2024/03/26 01:23:15;;;;;;;9.40;3.07;;;8.90;99.90;;;;;;7285741;19;20209;-78
2024/03/26 01:25:41;;;;;;;8.07;3.00;;;8.90;99.90;;;;;;7286910;19;20207;-77
2024/03/26 01:28:06;;;;;;;9.40;3.20;;;8.90;99.90;;;;;;7284700;19;20199;-77
2024/03/26 01:30:32;;;;;;;10.43;3.40;;;9.00;99.90;;;;;;7285170;19;20201;-77
2024/03/26 01:32:58;;;;;;;8.07;3.30;;;8.90;99.90;;;;;;7286665;19;20196;-76
2024/03/26 01:35:24;;;;;;;9.47;3.07;;;8.90;99.90;;;;;;7287332;19;20194;-76
2024/03/26 01:37:49;;;;;;;7.43;3.07;;;8.90;99.90;;;;;;7307158;19;20202;-76
2024/03/26 01:40:15;;;;;;;9.03;3.03;;;8.80;99.90;;;;;;7280702;19;20187;-76
2024/03/26 01:42:41;;;;;;;11.60;2.90;;;8.80;99.90;;;;;;7282052;19;20224;-77
2024/03/26 01:45:08;;;;;;;9.10;3.17;;;8.80;99.90;;;;;;7282892;19;20199;-76
2024/03/26 01:47:38;;;;;;;7.33;2.90;;;8.80;99.90;;;;;;7282720;19;20260;-76
2024/03/26 01:50:09;;;;;;;7.93;2.77;;;8.80;99.90;;;;;;7282269;19;20195;-76
2024/03/26 01:52:36;;;;;;;8.83;3.13;;;8.80;99.90;;;;;;7287653;19;20614;-76
2024/03/26 01:55:03;;;;;;;8.80;2.80;;;8.70;99.90;;;;;;7286538;19;20194;-77
2024/03/26 01:57:29;;;;;;;10.13;3.17;;;8.90;99.90;;;;;;7281834;19;20210;-77
2024/03/26 01:59:55;;;;;;;7.10;2.90;;;8.90;99.90;;;;;;7284887;19;20197;-76
2024/03/26 02:02:21;;;;;;;8.43;2.90;;;8.90;99.90;;;;;;7303433;19;20184;-76
2024/03/26 02:04:48;;;;;;;9.17;2.60;;;8.90;99.90;;;;;;7301757;19;20191;-76
2024/03/26 02:07:20;;;;;;;9.17;3.37;;;8.90;99.90;;;;;;7280888;19;20198;-77
2024/03/26 02:09:47;;;;;;;8.27;2.90;;;8.90;99.90;;;;;;7284779;19;20706;-77
2024/03/26 02:12:13;;;;;;;9.10;2.90;;;8.70;99.90;;;;;;7284641;19;21259;-77
2024/03/26 02:14:39;;;;;;;7.77;2.90;;;8.70;99.90;;;;;;7284545;19;20561;-76
2024/03/26 02:17:05;;;;;;;7.40;3.10;;;8.60;99.90;;;;;;7282776;19;20219;-77
2024/03/26 02:19:31;;;;;;;9.83;2.80;;;8.60;99.90;;;;;;7284489;19;20211;-77
2024/03/26 02:21:57;;;;;;;8.60;2.97;;;8.60;99.90;;;;;;7284754;19;20842;-77
2024/03/26 02:24:23;;;;;;;7.63;2.70;;;8.60;99.90;;;;;;7284464;19;20381;-77
2024/03/26 02:26:49;;;;;;;10.33;3.20;;;8.60;99.90;;;;;;7306384;19;20198;-77
2024/03/26 02:29:15;;;;;;;7.37;3.37;;;8.50;99.90;;;;;;7284939;19;20195;-77
2024/03/26 02:31:40;;;;;;;11.10;2.73;;;8.50;99.90;;;;;;7282902;19;25411;-77
2024/03/26 02:34:06;;;;;;;7.60;2.77;;;8.40;99.90;;;;;;7284012;19;20526;-77
2024/03/26 02:36:32;;;;;;;9.73;2.97;;;8.40;99.90;;;;;;7281728;19;20526;-77
2024/03/26 02:38:58;;;;;;;8.13;2.90;;;8.40;99.90;;;;;;7282818;19;20185;-77
2024/03/26 02:41:24;;;;;;;9.07;2.77;;;8.40;99.90;;;;;;7282806;19;20197;-77
2024/03/26 02:43:52;;;;;;;7.43;2.60;;;8.40;99.90;;;;;;7302920;19;20190;-78
2024/03/26 02:46:18;;;;;;;8.73;2.63;;;8.30;99.90;;;;;;7283608;19;20182;-77
2024/03/26 02:48:44;;;;;;;7.17;2.50;;;8.40;99.90;;;;;;7283006;19;20733;-76
2024/03/26 02:51:10;;;;;;;10.33;2.87;;;8.30;99.90;;;;;;7284307;19;20189;-77
2024/03/26 02:53:35;;;;;;;8.57;2.93;;;8.20;99.90;;;;;;7280168;19;20250;-78
2024/03/26 02:56:01;;;;;;;11.07;2.77;;;8.20;99.90;;;;;;7282267;19;20214;-77
2024/03/26 02:58:27;;;;;;;7.20;3.10;;;8.30;99.90;;;;;;7282352;19;20620;-77
2024/03/26 03:00:53;;;;;;;9.07;2.80;;;8.20;99.90;;;;;;7284214;19;20556;-77
2024/03/26 03:03:19;;;;;;;10.17;3.30;;;8.20;99.90;;;;;;7303230;19;20203;-77
2024/03/26 03:05:45;;;;;;;7.57;2.83;;;8.20;99.90;;;;;;7281906;19;20614;-77
2024/03/26 03:08:10;;;;;;;9.53;3.30;;;8.10;99.90;;;;;;7280711;19;20187;-77
2024/03/26 03:10:36;;;;;;;8.33;2.60;;;8.20;99.90;;;;;;7280869;19;20192;-77
2024/03/26 03:13:02;;;;;;;7.93;2.60;;;8.10;99.90;;;;;;7279400;19;20190;-76
2024/03/26 03:15:28;;;;;;;9.93;2.83;;;8.20;99.90;;;;;;7281948;19;20190;-76
2024/03/26 03:17:53;;;;;;;5.73;2.73;;;8.20;99.90;;;;;;7281846;19;20232;-76
2024/03/26 03:20:19;;;;;;;10.37;3.07;;;8.20;99.90;;;;;;7301605;19;20206;-78
2024/03/26 03:22:45;;;;;;;5.73;2.53;;;8.30;99.90;;;;;;7278890;19;20186;-76
2024/03/26 03:25:11;;;;;;;9.63;2.80;;;8.20;99.90;;;;;;7283665;19;20207;-77
2024/03/26 03:27:37;;;;;;;9.50;3.07;;;8.20;99.90;;;;;;7282697;19;20684;-76
2024/03/26 03:30:03;;;;;;;9.03;2.80;;;8.20;99.90;;;;;;7279949;19;20193;-77
2024/03/26 03:32:29;;;;;;;8.70;2.83;;;8.10;99.90;;;;;;7279060;19;20277;-76
2024/03/26 03:34:55;;;;;;;7.63;2.77;;;8.10;99.90;;;;;;7282584;19;20649;-76
2024/03/26 03:37:21;;;;;;;10.57;3.27;;;8.10;99.90;;;;;;7303495;19;20193;-76
2024/03/26 03:39:47;;;;;;;7.37;2.87;;;8.10;99.90;;;;;;7279138;19;20222;-76
2024/03/26 03:42:12;;;;;;;8.30;3.13;;;8.10;99.90;;;;;;7279502;19;20176;-77
2024/03/26 03:44:38;;;;;;;8.77;2.80;;;8.10;99.90;;;;;;7280919;19;20194;-75
2024/03/26 03:47:05;;;;;;;6.83;2.60;;;8.20;99.90;;;;;;7282074;19;20191;-78
2024/03/26 03:49:31;;;;;;;7.53;2.70;;;8.10;99.90;;;;;;7280129;19;20202;-78
2024/03/26 03:52:00;;;;;;;7.97;2.70;;;8.20;99.90;;;;;;7279303;19;20258;-78
2024/03/26 03:54:27;;;;;;;7.10;2.90;;;8.20;99.90;;;;;;7281013;19;20187;-78
2024/03/26 03:56:54;;;;;;;6.13;2.80;;;8.20;99.90;;;;;;7280912;19;20249;-76
2024/03/26 03:59:20;;;;;;;7.20;2.73;;;8.10;99.90;;;;;;7300552;19;20554;-77
2024/03/26 04:01:45;;;;;;;8.97;2.87;;;8.10;99.90;;;;;;7279067;19;20640;-77
2024/03/26 04:04:11;;;;;;;11.10;2.87;;;8.00;99.90;;;;;;7282470;19;20200;-77
2024/03/26 04:06:37;;;;;;;7.40;2.83;;;8.10;99.90;;;;;;7280244;19;20194;-77
2024/03/26 04:09:04;;;;;;;11.33;2.77;;;8.20;99.90;;;;;;7275947;19;20194;-78
2024/03/26 04:11:30;;;;;;;9.77;2.80;;;8.10;99.90;;;;;;7286179;19;20185;-77
2024/03/26 04:13:56;;;;;;;7.47;2.80;;;8.20;99.90;;;;;;7285977;19;20547;-77
2024/03/26 04:16:23;;;;;;;8.80;2.60;;;8.10;99.90;;;;;;7298999;19;20190;-76
2024/03/26 04:18:50;;;;;;;7.27;2.50;;;8.10;99.90;;;;;;7310398;19;20657;-77
2024/03/26 04:21:16;;;;;;;5.23;2.60;;;8.20;99.90;;;;;;7290005;19;20191;-77
2024/03/26 04:23:41;;;;;;;7.43;2.47;;;8.30;99.90;;;;;;7286890;19;20195;-77
2024/03/26 04:26:07;;;;;;;8.13;2.63;;;8.20;99.90;;;;;;7285658;19;20203;-76
2024/03/26 04:28:33;;;;;;;9.33;3.00;;;8.20;99.90;;;;;;7285473;19;20667;-77
2024/03/26 04:30:58;;;;;;;10.40;2.70;;;8.20;99.90;;;;;;7286015;19;20202;-77
2024/03/26 04:33:24;;;;;;;9.03;2.70;;;8.00;99.90;;;;;;7286646;19;20196;-77
2024/03/26 04:35:51;;;;;;;5.87;2.70;;;7.90;99.90;;;;;;7304287;19;20199;-77
2024/03/26 04:38:17;;;;;;;7.00;3.00;;;7.90;99.90;;;;;;7285746;19;20197;-77
2024/03/26 04:40:44;;;;;;;5.03;2.63;;;7.90;99.90;;;;;;7287739;19;20183;-77
2024/03/26 04:43:10;;;;;;;6.23;2.40;;;8.00;99.90;;;;;;7286580;19;20189;-77
2024/03/26 04:45:36;;;;;;;8.07;3.17;;;8.00;99.90;;;;;;7284154;19;20784;-77
2024/03/26 04:48:02;;;;;;;7.23;2.70;;;8.00;99.90;;;;;;7285271;19;20190;-77
2024/03/26 04:50:28;;;;;;;8.43;2.70;;;8.00;99.90;;;;;;7286524;19;20700;-78
2024/03/26 04:52:54;;;;;;;8.90;2.63;;;8.10;99.90;;;;;;7285838;19;20182;-78
2024/03/26 04:55:20;;;;;;;8.63;2.60;;;8.00;99.90;;;;;;7306556;19;20187;-77
2024/03/26 04:57:46;;;;;;;9.50;2.73;;;8.00;99.90;;;;;;7285927;19;20189;-77
2024/03/26 05:00:13;;;;;;;8.13;2.77;;;8.00;99.90;;;;;;7288313;19;20210;-77
2024/03/26 05:02:43;;;;;;;6.67;2.43;;;8.00;99.90;;;;;;7285654;19;20285;-76
2024/03/26 05:05:09;;;;;;;5.20;2.50;;;8.00;99.90;;;;;;7284975;19;20192;-77
2024/03/26 05:07:36;;;;;;;7.70;2.50;;;8.00;99.90;;;;;;7288349;19;20232;-77
2024/03/26 05:10:07;;;;;;;7.10;2.77;;;8.00;99.90;;;;;;7285577;19;20274;-77
2024/03/26 05:12:33;;;;;;;5.93;2.33;;;7.90;99.90;;;;;;7294878;19;20201;-76
2024/03/26 05:14:59;;;;;;;8.00;3.03;;;7.80;99.90;;;;;;7290079;19;20180;-76
2024/03/26 05:17:25;;;;;;;9.13;2.47;;;7.70;99.90;;;;;;7286370;19;20212;-76
2024/03/26 05:19:51;;;;;;;5.97;2.70;;;7.70;99.90;;;;;;7309345;19;20641;-76
2024/03/26 05:22:17;;;;;;;7.50;2.70;;;7.70;99.90;;;;;;7282657;19;20182;-76
2024/03/26 05:24:43;;;;;;;8.77;2.77;;;7.80;99.90;;;;;;7283152;19;20582;-78
2024/03/26 05:27:10;;;;;;;8.37;2.63;;;7.90;99.90;;;;;;7284958;19;20196;-77
2024/03/26 05:29:38;;;;;;;7.93;2.67;;;7.90;99.90;;;;;;7285771;19;20198;-77
2024/03/26 05:32:04;;;;;;;8.00;3.00;;;8.00;99.90;;;;;;7284336;19;20186;-78
2024/03/26 05:34:30;;;;;;;7.47;2.83;;;8.00;99.90;;;;;;7283716;19;20575;-76
2024/03/26 05:36:56;;;;;;;6.20;2.57;;;7.90;99.90;;;;;;7285107;19;20253;-76
2024/03/26 05:39:23;;;;;;;9.80;2.73;;;7.90;99.90;;;;;;7295241;19;20189;-76
2024/03/26 05:41:50;;;;;;;15.47;3.87;;;8.00;99.90;;;;;;7304756;19;20237;-77
2024/03/26 05:44:17;;;;;;;6.97;3.00;;;8.00;99.90;;;;;;7284223;19;20215;-76
2024/03/26 05:46:43;;;;;;;7.33;2.70;;;8.00;99.90;;;;;;7284474;19;20180;-77
2024/03/26 05:49:09;;;;;;;7.60;2.63;;;7.80;99.90;;;;;;7284067;19;20194;-77
2024/03/26 05:51:35;;;;;;;8.60;2.90;;;7.80;99.90;;;;;;7282779;19;20213;-77
2024/03/26 05:54:01;;;;;;;9.47;3.10;;;7.80;99.90;;;;;;7284782;19;20645;-77
2024/03/26 05:56:27;;;;;;;8.10;3.27;;;7.70;99.90;;;;;;7286520;19;21023;-78
2024/03/26 05:58:56;;;;;;;6.43;2.80;;;7.80;99.90;;;;;;7297303;19;20213;-77
2024/03/26 06:01:22;;;;;;;9.27;2.90;;;7.90;99.90;;;;;;7304793;19;20194;-78
2024/03/26 06:03:48;;;;;;;8.23;2.67;;;7.80;99.90;;;;;;7294819;19;20191;-77
2024/03/26 06:06:14;;;;;;;8.97;3.17;;;7.90;99.90;;;;;;7286869;19;20204;-79
2024/03/26 06:08:39;;;;;;;7.40;3.10;;;8.00;99.90;;;;;;7282430;19;20196;-79
2024/03/26 06:11:05;;;;;;;6.93;2.80;;;8.00;99.90;;;;;;7282594;19;20192;-79
2024/03/26 06:13:31;;;;;;;8.60;3.20;;;8.10;99.90;;;;;;7285721;19;20650;-78
2024/03/26 06:16:08;;;;;;;8.40;2.60;;;8.20;99.90;;;;;;7282530;19;20186;-77
2024/03/26 06:18:35;;;;;;;7.07;2.70;;;8.20;99.90;;;;;;7283239;19;20194;-78
2024/03/26 06:21:02;;;;;;;9.83;2.90;;;8.30;99.90;;;;;;7284307;19;20243;-77
2024/03/26 06:23:28;;;;;;;6.50;2.53;;;8.30;99.90;;;;;;7284273;19;20304;-78
2024/03/26 06:25:54;;;;;;;8.80;3.30;;;8.20;99.90;;;;;;7283709;19;20190;-77
2024/03/26 06:28:19;;;;;;;6.70;3.07;;;8.20;99.90;;;;;;7304507;19;20187;-78
2024/03/26 06:30:46;;;;;;;6.60;2.77;;;8.30;99.90;;;;;;7281165;19;20199;-78
2024/03/26 06:33:13;;;;;;;7.70;2.83;;;8.40;99.90;;;;;;7282101;19;20216;-77
2024/03/26 06:35:39;;;;;;;9.47;2.70;;;8.40;99.90;;;;;;7281705;19;20190;-78
2024/03/26 06:38:05;;;;;;;6.90;2.80;;;8.50;99.90;;;;;;7279649;19;20193;-78
2024/03/26 06:40:32;;;;;;;8.23;2.40;;;8.70;99.90;;;;;;7281018;19;20195;-76
2024/03/26 06:42:57;;;;;;;8.77;2.77;;;8.80;99.90;;;;;;7278774;19;20194;-77
2024/03/26 06:45:23;;;;;;;8.00;2.90;;;8.90;99.90;;;;;;7287377;19;20198;-77
2024/03/26 06:47:49;;;;;;;9.50;3.17;;;9.00;99.90;;;;;;7302338;19;20194;-76
2024/03/26 06:50:15;;;;;;;9.13;3.03;;;9.00;99.90;;;;;;7285530;19;20185;-78
2024/03/26 06:52:40;;;;;;;7.07;2.90;;;9.20;99.90;;;;;;7282857;19;20718;-77
2024/03/26 06:55:06;;;;;;;8.67;3.30;;;9.30;99.90;;;;;;7280490;19;20200;-78
2024/03/26 06:57:32;;;;;;;7.73;2.57;;;9.40;99.90;;;;;;7277855;19;20206;-78
2024/03/26 06:59:58;;;;;;;11.17;2.73;;;9.50;99.90;;;;;;7282996;19;20180;-78
2024/03/26 07:02:24;;;;;;;7.13;2.47;;;9.50;99.90;;;;;;7282897;19;20693;-78
2024/03/26 07:04:50;;;;;;;9.17;2.83;;;9.40;99.90;;;;;;7302043;19;20187;-78
2024/03/26 07:07:16;;;;;;;7.90;3.00;;;9.40;99.90;;;;;;7280366;19;20525;-78
2024/03/26 07:09:42;;;;;;;9.57;2.73;;;9.50;99.90;;;;;;7284177;19;20196;-78
2024/03/26 07:12:08;;;;;;;8.47;3.10;;;9.60;99.90;;;;;;7284443;19;20195;-78
2024/03/26 07:14:34;;;;;;;9.60;5.70;;;9.80;99.90;;;;;;7282237;19;20659;-78
2024/03/26 07:17:00;;;;;;;9.33;2.70;;;9.80;99.90;;;;;;7282569;19;21020;-79
2024/03/26 07:19:25;;;;;;;7.97;3.00;;;9.70;99.90;;;;;;7282401;19;20184;-78
2024/03/26 07:21:51;;;;;;;7.03;2.53;;;9.60;99.90;;;;;;7303759;19;20177;-79
2024/03/26 07:24:17;;;;;;;6.53;3.00;;;9.60;99.90;;;;;;7282116;19;20191;-78
2024/03/26 07:26:42;;;;;;;12.10;2.50;;;9.50;99.90;;;;;;7283869;19;20188;-79
2024/03/26 07:29:09;;;;;;;8.17;3.13;;;9.60;99.90;;;;;;7283713;19;20192;-79
2024/03/26 07:31:35;;;;;;;7.37;2.73;;;9.50;99.90;;;;;;7282083;19;20223;-78
2024/03/26 07:34:02;;;;;;;7.20;2.77;;;9.50;99.90;;;;;;7280640;19;20198;-79
2024/03/26 07:36:27;;;;;;;7.70;3.00;;;9.60;99.90;;;;;;7279614;19;20214;-79
2024/03/26 07:38:53;;;;;;;10.87;3.07;;;9.70;99.90;;;;;;7288849;19;20180;-78
2024/03/26 07:41:19;;;;;;;6.93;2.63;;;9.90;99.90;;;;;;7303622;19;20184;-78
2024/03/26 07:43:44;;;;;;;8.27;2.37;;;9.90;99.90;;;;;;7276933;19;20778;-78
2024/03/26 07:46:10;;;;;;;9.00;2.70;;;10.10;99.90;;;;;;7284521;19;20684;-78
2024/03/26 07:48:36;;;;;;;10.43;3.17;;;10.20;99.90;;;;;;7282862;19;20200;-78
2024/03/26 07:51:05;;;;;;;9.03;2.90;;;10.40;99.90;;;;;;7280793;19;20205;-78
2024/03/26 07:53:32;;;;;;;9.90;2.90;;;10.40;99.90;;;;;;7282675;19;20204;-78
2024/03/26 07:55:58;;;;;;;11.63;3.23;;;10.50;99.90;;;;;;7283780;19;20226;-78
2024/03/26 07:58:24;;;;;;;9.23;3.27;;;10.40;99.90;;;;;;7287605;19;20191;-79
2024/03/26 08:00:50;;;;;;;10.40;3.60;;;10.50;99.90;;;;;;7304419;19;20578;-79
2024/03/26 08:03:16;;;;;;;8.60;2.80;;;10.60;99.90;;;;;;7282382;19;20221;-79
2024/03/26 08:05:42;;;;;;;8.80;3.00;;;10.60;99.90;;;;;;7283357;19;20197;-79
2024/03/26 08:08:07;;;;;;;7.27;2.97;;;10.80;99.90;;;;;;7284090;19;20188;-78
2024/03/26 08:10:36;;;;;;;7.67;3.00;;;10.80;99.90;;;;;;7281856;19;20195;-79
2024/03/26 08:13:02;;;;;;;8.53;3.00;;;10.70;99.90;;;;;;7282215;19;20188;-79
2024/03/26 08:15:28;;;;;;;9.80;3.10;;;10.90;99.90;;;;;;7282469;19;20543;-79
2024/03/26 08:17:54;;;;;;;10.37;2.87;;;11.00;99.90;;;;;;7281774;19;20213;-79
2024/03/26 08:20:20;;;;;;;11.30;3.17;;;11.10;99.90;;;;;;7302798;19;20236;-78
2024/03/26 08:22:46;;;;;;;9.30;2.97;;;11.30;99.90;;;;;;7282231;19;20188;-79
2024/03/26 08:25:11;;;;;;;12.73;2.87;;;11.20;99.90;;;;;;7280796;19;20212;-79
2024/03/26 08:27:39;;;;;;;9.03;3.47;;;11.30;99.90;;;;;;7279885;19;20193;-79
2024/03/26 08:30:10;;;;;;;10.63;2.80;;;11.30;99.90;;;;;;7280507;19;20189;-79
2024/03/26 08:32:37;;;;;;;9.57;3.13;;;11.40;99.90;;;;;;7287011;19;20226;-79
2024/03/26 08:35:03;;;;;;;13.37;3.20;;;11.50;99.90;;;;;;7290855;19;20220;-79
2024/03/26 08:37:28;;;;;;;9.70;2.90;;;11.60;99.90;;;;;;7281267;19;20193;-79
2024/03/26 08:39:55;;;;;;;10.03;3.23;;;11.50;99.90;;;;;;7278412;19;20215;-78
2024/03/26 08:42:21;;;;;;;9.40;3.07;;;11.70;99.90;;;;;;7303342;19;20250;-79
2024/03/26 08:44:48;;;;;;;8.50;3.13;;;11.50;99.90;;;;;;7280667;19;20187;-78
2024/03/26 08:47:14;;;;;;;10.13;3.27;;;11.50;99.90;;;;;;7279545;19;21382;-79
2024/03/26 08:49:39;;;;;;;10.43;3.10;;;11.70;99.90;;;;;;7279196;19;20181;-79
2024/03/26 08:52:05;;;;;;;10.50;3.40;;;11.90;99.90;;;;;;7282179;19;20206;-79
2024/03/26 08:54:31;;;;;;;14.37;4.00;;;12.00;99.90;;;;;;7281397;19;20197;-79
2024/03/26 08:56:57;;;;;;;11.97;3.60;;;11.80;99.90;;;;;;7285830;19;20660;-79
2024/03/26 08:59:23;;;;;;;12.77;3.93;;;11.90;99.90;;;;;;7300311;19;20188;-78
2024/03/26 09:01:49;;;;;;;9.63;3.07;;;12.00;99.90;;;;;;7305395;19;20208;-79
2024/03/26 09:04:15;;;;;;;11.33;3.20;;;11.90;99.90;;;;;;7287721;19;20239;-78
2024/03/26 09:06:40;;;;;;;10.80;3.33;;;12.00;99.90;;;;;;7287853;19;20186;-78
2024/03/26 09:09:06;;;;;;;9.93;3.20;;;12.00;99.90;;;;;;7288143;19;20192;-79
2024/03/26 09:11:32;;;;;;;9.90;2.97;;;12.10;99.90;;;;;;7290639;19;20197;-79
2024/03/26 09:13:58;;;;;;;10.77;3.50;;;12.00;99.90;;;;;;7286650;19;20192;-79
2024/03/26 09:16:23;;;;;;;8.20;2.90;;;12.10;99.90;;;;;;7294061;19;20190;-79
2024/03/26 09:18:49;;;;;;;7.80;3.00;;;11.90;99.90;;;;;;7308863;19;20188;-79
2024/03/26 09:21:16;;;;;;;8.57;3.17;;;11.80;99.90;;;;;;7288951;19;20568;-79
2024/03/26 09:23:42;;;;;;;9.87;3.20;;;11.90;99.90;;;;;;7287809;19;20201;-78
2024/03/26 09:26:08;;;;;;;11.23;3.33;;;11.80;99.90;;;;;;7287314;19;20186;-79
2024/03/26 09:28:34;;;;;;;10.73;3.10;;;12.00;99.90;;;;;;7287683;19;20193;-79
2024/03/26 09:31:01;;;;;;;8.57;3.13;;;12.00;99.90;;;;;;7286956;19;20205;-79
2024/03/26 09:33:26;;;;;;;10.50;3.40;;;12.00;99.90;;;;;;7284795;19;20654;-79
2024/03/26 09:35:52;;;;;;;10.03;3.00;;;12.10;99.90;;;;;;7304581;19;20545;-79
2024/03/26 09:38:20;;;;;;;8.73;3.00;;;12.20;99.90;;;;;;7291422;19;20193;-79
2024/03/26 09:40:47;;;;;;;12.03;3.30;;;12.40;99.90;;;;;;7284526;19;20208;-79
2024/03/26 09:43:14;;;;;;;11.03;3.30;;;12.70;99.90;;;;;;7281888;19;20204;-79
2024/03/26 09:45:40;;;;;;;8.60;3.23;;;13.00;99.90;;;;;;7284473;19;20294;-79
2024/03/26 09:48:11;;;;;;;9.23;3.30;;;13.20;99.90;;;;;;7283055;19;20198;-79
2024/03/26 09:50:39;;;;;;;10.13;2.80;;;13.30;99.90;;;;;;7283594;19;20197;-78
2024/03/26 09:53:09;;;;;;;8.63;2.60;;;13.40;99.90;;;;;;7280855;19;20199;-79
2024/03/26 09:55:37;;;;;;;10.00;2.70;;;13.40;99.90;;;;;;7284841;19;20193;-78
2024/03/26 09:58:02;;;;;;;8.73;2.60;;;13.60;99.90;;;;;;7285935;19;20191;-79
2024/03/26 10:00:31;;;;;;;7.43;2.40;;;13.90;99.90;;;;;;7287065;19;21016;-78
2024/03/26 10:02:59;;;;;;;9.60;2.90;;;14.10;99.90;;;;;;7283498;19;20191;-77
2024/03/26 10:05:25;;;;;;;8.23;2.60;;;14.20;99.90;;;;;;7282417;19;20190;-79
2024/03/26 10:07:51;;;;;;;9.27;2.60;;;14.60;99.90;;;;;;7304546;19;20193;-78
2024/03/26 10:10:18;;;;;;;9.90;2.80;;;14.80;99.90;;;;;;7283802;19;20180;-78
2024/03/26 10:12:44;;;;;;;7.20;2.73;;;15.20;99.90;;;;;;7280693;19;20261;-78
2024/03/26 10:15:10;;;;;;;9.37;2.70;;;15.90;99.90;;;;;;7285056;19;20195;-78
2024/03/26 10:17:36;;;;;;;8.87;3.00;;;16.20;99.90;;;;;;7283542;19;20665;-78
2024/03/26 10:20:05;;;;;;;10.27;2.47;;;16.40;99.90;;;;;;7285381;19;20205;-78
2024/03/26 10:22:30;;;;;;;10.03;2.67;;;16.60;99.90;;;;;;7285511;19;20235;-79
2024/03/26 10:24:56;;;;;;;8.43;2.90;;;17.00;99.90;;;;;;7284874;19;20184;-79
2024/03/26 10:27:22;;;;;;;5.90;2.53;;;17.20;99.90;;;;;;7308436;19;20648;-79
2024/03/26 10:29:52;;;;;;;7.97;2.60;;;16.90;99.90;;;;;;7284654;19;20187;-78
2024/03/26 10:32:21;;;;;;;6.93;2.43;;;16.70;99.90;;;;;;7284193;19;20199;-78
2024/03/26 10:34:56;;;;;;;10.80;2.70;;;16.20;99.90;;;;;;7285914;19;20183;-79
2024/03/26 10:37:24;;;;;;;8.63;2.73;;;15.80;99.90;;;;;;7285165;19;20193;-79
2024/03/26 10:39:55;;;;;;;7.97;3.03;;;16.10;99.90;;;;;;7283993;19;20194;-79
2024/03/26 10:42:24;;;;;;;9.77;2.67;;;16.20;99.90;;;;;;7286754;19;20187;-79
2024/03/26 10:44:53;;;;;;;10.20;2.90;;;16.10;99.90;;;;;;7286589;19;20263;-78
2024/03/26 10:47:19;;;;;;;7.53;2.80;;;16.30;99.90;;;;;;7284463;19;20183;-79
2024/03/26 10:49:46;;;;;;;9.90;3.00;;;16.00;99.90;;;;;;7283703;19;20194;-78
2024/03/26 10:52:12;;;;;;;7.30;2.97;;;15.70;99.90;;;;;;7284570;19;20185;-79
2024/03/26 10:54:39;;;;;;;6.97;2.83;;;15.60;99.90;;;;;;7281803;19;20211;-79
2024/03/26 10:57:05;;;;;;;8.40;2.57;;;15.60;99.90;;;;;;7282591;19;20201;-79
2024/03/26 10:59:31;;;;;;;11.17;2.70;;;15.30;99.90;;;;;;7283137;19;20196;-77
2024/03/26 11:01:57;;;;;;;7.97;2.60;;;15.40;99.90;;;;;;7284061;19;20186;-78
2024/03/26 11:04:23;;;;;;;9.30;3.43;;;15.60;99.90;;;;;;7301689;19;20190;-76
2024/03/26 11:06:49;;;;;;;8.80;2.83;;;16.20;99.90;;;;;;7294963;19;20674;-78
2024/03/26 11:09:16;;;;;;;8.10;2.93;;;16.60;99.90;;;;;;7281247;19;20194;-78
2024/03/26 11:11:41;;;;;;;10.60;3.17;;;16.90;99.90;;;;;;7284266;19;20199;-78
2024/03/26 11:14:07;;;;;;;8.33;3.53;;;17.10;99.90;;;;;;7284475;19;20195;-78
2024/03/26 11:16:42;;;;;;;11.40;3.10;;;17.00;99.90;;;;;;7280490;19;20319;-78
2024/03/26 11:19:37;;;;;;;8.87;3.07;;;16.60;99.90;;;;;;7283140;19;20198;-78
2024/03/26 11:22:03;;;;;;;10.07;3.43;;;16.50;99.90;;;;;;7185204;19;2005063;-78
2024/03/26 11:24:36;;;;;;;6.60;2.83;;;16.30;99.90;;;;;;7282819;19;20180;-77
2024/03/26 11:27:04;;;;;;;8.80;2.90;;;15.80;99.90;;;;;;7283241;19;20283;-78
2024/03/26 11:29:32;;;;;;;7.77;2.80;;;16.10;99.90;;;;;;7284807;19;20199;-78
2024/03/26 11:32:01;;;;;;;11.20;3.20;;;16.20;99.90;;;;;;7284959;19;20194;-78
2024/03/26 11:34:30;;;;;;;7.47;2.73;;;16.40;99.90;;;;;;7281975;19;20198;-78
2024/03/26 11:36:56;;;;;;;9.17;2.97;;;16.00;99.90;;;;;;7289535;19;20282;-77
2024/03/26 11:39:24;;;;;;;8.93;2.80;;;16.10;99.90;;;;;;7318554;19;20610;-78
2024/03/26 11:41:54;;;;;;;11.00;3.23;;;16.00;99.90;;;;;;7298584;19;20211;-78
2024/03/26 11:44:20;;;;;;;9.73;3.63;;;16.00;99.90;;;;;;7287937;19;20186;-78
2024/03/26 11:46:46;;;;;;;10.40;3.20;;;16.00;99.90;;;;;;7282210;19;20210;-78
2024/03/26 11:49:12;;;;;;;21.37;8.20;;;16.20;99.90;;;;;;7283900;19;20211;-78
2024/03/26 11:51:38;;;;;;;13.37;5.50;;;16.30;99.90;;;;;;7283945;19;20199;-78
2024/03/26 11:54:05;;;;;;;14.20;4.50;;;16.60;99.90;;;;;;7282514;19;20217;-78
2024/03/26 11:56:32;;;;;;;9.50;4.03;;;16.90;99.90;;;;;;7282318;19;20197;-78
2024/03/26 11:58:58;;;;;;;9.03;3.73;;;17.10;99.90;;;;;;7284468;19;20545;-78
2024/03/26 12:01:25;;;;;;;13.00;5.80;;;17.30;99.90;;;;;;7293446;19;20187;-78
2024/03/26 12:03:51;;;;;;;11.07;3.77;;;17.50;99.90;;;;;;7303585;19;20771;-78
2024/03/26 12:06:23;;;;;;;9.97;4.33;;;17.60;99.90;;;;;;7281566;19;20290;-78
2024/03/26 12:08:50;;;;;;;12.17;4.70;;;17.80;99.90;;;;;;7280580;19;20210;-77
2024/03/26 12:11:16;;;;;;;12.00;5.10;;;18.00;99.90;;;;;;7279181;19;20184;-78
2024/03/26 12:13:42;;;;;;;10.17;3.80;;;18.40;99.90;;;;;;7277044;19;20674;-78
2024/03/26 12:16:28;;;;;;;9.30;3.93;;;18.60;99.90;;;;;;7278572;19;20596;-78
2024/03/26 12:18:54;;;;;;;10.53;4.00;;;18.30;99.90;;;;;;7279099;19;20204;-78
2024/03/26 12:21:21;;;;;;;8.33;3.03;;;18.50;99.90;;;;;;7301213;19;20214;-79
2024/03/26 12:23:51;;;;;;;9.23;3.33;;;18.80;99.90;;;;;;7279765;19;20192;-78
2024/03/26 12:26:18;;;;;;;8.03;3.40;;;18.80;99.90;;;;;;7281114;19;20568;-79
2024/03/26 12:28:44;;;;;;;9.60;3.40;;;18.80;99.90;;;;;;7282460;19;20599;-78
2024/03/26 12:31:10;;;;;;;8.73;3.03;;;18.80;99.90;;;;;;7285354;19;20197;-78
2024/03/26 12:33:36;;;;;;;9.57;3.20;;;19.20;99.90;;;;;;7289484;19;20651;-78
2024/03/26 12:36:04;;;;;;;9.07;3.13;;;19.30;99.90;;;;;;7287567;19;20189;-79
2024/03/26 12:38:33;;;;;;;8.87;3.00;;;19.00;99.90;;;;;;7287377;19;20223;-78
2024/03/26 12:40:59;;;;;;;7.43;2.67;;;19.10;99.90;;;;;;7287247;19;20189;-78
2024/03/26 12:43:25;;;;;;;8.97;3.23;;;18.90;99.90;;;;;;7288199;19;20193;-78
2024/03/26 12:45:51;;;;;;;10.90;3.20;;;18.70;99.90;;;;;;7310970;19;20197;-79